Time;durP1;ratioP1;P1;durP2;ratioP2;P2;SDS_P1;SDS_P2;PMS_P1;PMS_P2;Temp;Humidity;BMP_temperature;BMP_pressure;BME280_temperature;BME280_humidity;BME280_pressure;Samples;Min_cycle;Max_cycle;Signal;HPM_P1;HPM_P2
2023/07/08 00:00:19;;;;;;;8.70;7.22;;;;;;;13.87;100.00;101783.03;4926452;29;20036;-73
2023/07/08 00:02:50;;;;;;;9.20;6.88;;;;;;;13.87;100.00;101785.72;4919183;29;20274;-73
2023/07/08 00:05:18;;;;;;;10.05;6.75;;;;;;;13.85;100.00;101778.81;4925909;29;20036;-73
2023/07/08 00:07:44;;;;;;;9.38;6.85;;;;;;;13.82;100.00;101782.66;4920282;29;20421;-73
2023/07/08 00:10:25;;;;;;;9.73;6.93;;;;;;;13.82;100.00;101780.00;4937796;28;20040;-73
2023/07/08 00:12:53;;;;;;;9.93;6.53;;;;;;;13.79;100.00;101774.94;4938104;28;20040;-73
2023/07/08 00:15:32;;;;;;;9.82;8.07;;;;;;;13.75;100.00;101776.25;4929276;29;20549;-73
2023/07/08 00:17:59;;;;;;;10.15;7.43;;;;;;;13.75;100.00;101773.56;4922315;29;20067;-73
2023/07/08 00:20:38;;;;;;;9.85;7.82;;;;;;;13.73;100.00;101772.88;4924485;29;20028;-73
2023/07/08 00:23:04;;;;;;;11.50;7.30;;;;;;;13.70;100.00;101775.91;4923873;29;20399;-73
2023/07/08 00:25:31;;;;;;;10.75;7.38;;;;;;;13.67;100.00;101766.31;4922814;28;20098;-73
2023/07/08 00:27:56;;;;;;;10.05;7.32;;;;;;;13.62;100.00;101775.81;4921063;29;20068;-73
2023/07/08 00:30:29;;;;;;;9.10;7.00;;;;;;;13.59;100.00;101762.72;4927031;29;20066;-73
2023/07/08 00:32:55;;;;;;;8.98;7.10;;;;;;;13.56;100.00;101765.75;4926851;29;20115;-73
2023/07/08 00:35:34;;;;;;;9.18;7.47;;;;;;;13.55;100.00;101772.91;4914245;29;20019;-73
2023/07/08 00:38:02;;;;;;;13.00;8.05;;;;;;;13.55;100.00;101774.78;4944126;28;20556;-73
2023/07/08 00:40:31;;;;;;;15.98;8.32;;;;;;;13.51;100.00;101772.41;4929534;29;20023;-73
2023/07/08 00:42:59;;;;;;;10.63;7.75;;;;;;;13.45;100.00;101766.81;4929444;29;20040;-73
2023/07/08 00:45:35;;;;;;;12.73;8.68;;;;;;;13.46;100.00;101773.84;4928299;29;20032;-73
2023/07/08 00:48:18;;;;;;;9.20;7.30;;;;;;;13.45;100.00;101773.03;4929827;29;20040;-73
2023/07/08 00:50:43;;;;;;;10.38;7.70;;;;;;;13.46;100.00;101774.72;4940984;28;20564;-73
2023/07/08 00:53:29;;;;;;;12.37;7.63;;;;;;;13.44;100.00;101771.34;4919308;29;20118;-73
2023/07/08 00:56:02;;;;;;;7.63;6.82;;;;;;;13.39;100.00;101764.75;4929217;29;20131;-73
2023/07/08 00:58:38;;;;;;;13.05;7.82;;;;;;;13.35;100.00;101760.72;4927789;29;20058;-73
2023/07/08 01:01:05;;;;;;;;;;;;;;;13.32;100.00;101755.66;4930948;28;20109;-73
2023/07/08 01:03:32;;;;;;;9.48;7.35;;;;;;;13.30;100.00;101745.09;4942035;28;19911;-73
2023/07/08 01:06:01;;;;;;;11.38;8.82;;;;;;;13.27;100.00;101745.34;4941219;28;20083;-73
2023/07/08 01:08:28;;;;;;;10.13;7.47;;;;;;;13.25;100.00;101747.34;4914194;29;20492;-73
2023/07/08 01:11:01;;;;;;;8.48;7.05;;;;;;;13.21;100.00;101736.09;4927130;29;20595;-73
2023/07/08 01:13:31;;;;;;;11.45;7.53;;;;;;;13.18;100.00;101738.25;4934414;29;20044;-73
2023/07/08 01:15:57;;;;;;;10.18;8.57;;;;;;;13.19;100.00;101746.16;4929310;29;20461;-73
2023/07/08 01:18:24;;;;;;;12.98;8.27;;;;;;;13.24;100.00;101753.72;4917208;29;20111;-73
2023/07/08 01:20:50;;;;;;;9.43;8.18;;;;;;;13.21;100.00;101756.72;4929469;29;20531;-73
2023/07/08 01:23:17;;;;;;;11.32;9.13;;;;;;;13.22;100.00;101763.75;4933431;29;20019;-73
2023/07/08 01:25:47;;;;;;;11.07;9.02;;;;;;;13.22;100.00;101761.06;4926108;29;20032;-73
2023/07/08 01:28:13;;;;;;;11.82;8.55;;;;;;;13.20;100.00;101768.44;4928541;29;20027;-73
2023/07/08 01:30:42;;;;;;;12.77;9.18;;;;;;;13.16;100.00;101759.00;4909838;29;20583;-73
2023/07/08 01:33:18;;;;;;;10.15;8.52;;;;;;;13.19;100.00;101756.03;4929552;29;20059;-73
2023/07/08 01:35:44;;;;;;;;;;;;;;;13.18;100.00;101755.19;4922348;29;20046;-73
2023/07/08 01:38:14;;;;;;;11.40;9.30;;;;;;;13.18;100.00;101748.97;4929506;29;19915;-73
2023/07/08 01:40:49;;;;;;;12.52;8.20;;;;;;;13.13;100.00;101746.75;4923241;29;20035;-73
2023/07/08 01:43:15;;;;;;;13.02;8.65;;;;;;;13.13;100.00;101753.97;4925376;29;20074;-73
2023/07/08 01:45:42;;;;;;;11.98;8.13;;;;;;;13.06;100.00;101740.31;4942522;28;20115;-73
2023/07/08 01:48:11;;;;;;;15.15;8.45;;;;;;;13.05;100.00;101736.81;4929380;28;20403;-73
2023/07/08 01:50:54;;;;;;;13.77;8.60;;;;;;;13.06;100.00;101743.88;4925530;29;20478;-73
2023/07/08 01:53:27;;;;;;;13.02;9.15;;;;;;;13.04;100.00;101732.47;4924277;29;20473;-73
2023/07/08 01:55:52;;;;;;;14.38;8.95;;;;;;;13.05;100.00;101733.28;4923324;29;20075;-73
2023/07/08 01:58:18;;;;;;;11.00;8.33;;;;;;;13.05;100.00;101728.78;4928546;28;20121;-73
2023/07/08 02:00:43;;;;;;;10.80;8.67;;;;;;;13.04;100.00;101720.88;4948456;28;20113;-73
2023/07/08 02:03:09;;;;;;;15.47;9.33;;;;;;;13.01;100.00;101726.53;4936607;29;20029;-73
2023/07/08 02:05:35;;;;;;;;;;;;;;;13.00;100.00;101716.84;4922797;29;20044;-73
2023/07/08 02:08:01;;;;;;;12.07;9.35;;;;;;;13.00;100.00;101719.53;4938305;28;20320;-73
2023/07/08 02:10:26;;;;;;;11.37;8.57;;;;;;;12.97;100.00;101715.31;4924069;29;20047;-73
2023/07/08 02:12:52;;;;;;;13.30;9.63;;;;;;;12.93;100.00;101724.66;4940718;28;20074;-73
2023/07/08 02:15:17;;;;;;;12.82;9.20;;;;;;;12.95;100.00;101744.09;4929958;29;20043;-73
2023/07/08 02:17:42;;;;;;;12.20;9.00;;;;;;;12.96;100.00;101744.94;4936870;28;20023;-73
2023/07/08 02:20:08;;;;;;;12.63;8.67;;;;;;;12.88;100.00;101735.00;4926684;29;20545;-73
2023/07/08 02:22:34;;;;;;;13.43;9.07;;;;;;;12.90;100.00;101741.06;4942933;28;20039;-73
2023/07/08 02:24:59;;;;;;;11.30;8.87;;;;;;;12.89;100.00;101734.00;4924320;29;20149;-73
2023/07/08 02:27:25;;;;;;;14.77;8.70;;;;;;;12.94;100.00;101737.03;4915671;29;20271;-73
2023/07/08 02:29:50;;;;;;;8.93;8.03;;;;;;;12.93;100.00;101739.91;4939624;28;20553;-73
2023/07/08 02:32:17;;;;;;;13.60;8.50;;;;;;;12.90;100.00;101733.00;4928055;29;20055;-73
2023/07/08 02:34:42;;;;;;;14.68;9.40;;;;;;;12.91;100.00;101728.47;4928127;29;20039;-73
2023/07/08 02:37:07;;;;;;;9.83;8.07;;;;;;;12.89;100.00;101729.47;4941980;28;20370;-73
2023/07/08 02:39:33;;;;;;;18.77;8.77;;;;;;;12.86;100.00;101721.75;4925050;29;20126;-73
2023/07/08 02:41:58;;;;;;;12.37;9.23;;;;;;;12.85;100.00;101719.19;4942677;28;20032;-73
2023/07/08 02:44:26;;;;;;;12.82;8.25;;;;;;;12.85;100.00;101727.25;4915182;29;20037;-73
2023/07/08 02:46:52;;;;;;;11.07;8.23;;;;;;;12.84;100.00;101729.09;4923727;29;20032;-73
2023/07/08 02:49:17;;;;;;;11.17;8.43;;;;;;;12.83;100.00;101723.88;4927050;29;20035;-73
2023/07/08 02:51:42;;;;;;;10.67;7.70;;;;;;;12.79;100.00;101722.50;4939029;28;20066;-73
2023/07/08 02:54:08;;;;;;;14.13;8.87;;;;;;;12.77;100.00;101719.16;4930113;29;20032;-73
2023/07/08 02:56:33;;;;;;;9.70;7.17;;;;;;;12.74;100.00;101730.19;4929796;29;20137;-73
2023/07/08 02:58:58;;;;;;;10.80;7.60;;;;;;;12.74;100.00;101719.47;4925761;29;20059;-73
2023/07/08 03:01:26;;;;;;;16.93;9.43;;;;;;;12.73;100.00;101731.16;4927541;29;20031;-73
2023/07/08 03:03:56;;;;;;;12.68;8.60;;;;;;;12.72;100.00;101737.53;4928358;29;20036;-73
2023/07/08 03:06:22;;;;;;;12.88;8.52;;;;;;;12.70;100.00;101728.78;4926554;29;20039;-73
2023/07/08 03:08:47;;;;;;;14.03;8.67;;;;;;;12.67;100.00;101729.94;4939783;28;20056;-73
2023/07/08 03:11:12;;;;;;;10.93;8.97;;;;;;;12.65;100.00;101729.25;4927826;28;20480;-73
2023/07/08 03:13:38;;;;;;;16.17;8.27;;;;;;;12.64;100.00;101709.66;4939350;28;20400;-73
2023/07/08 03:16:12;;;;;;;11.97;8.90;;;;;;;12.66;100.00;101723.72;4927642;29;20444;-73
2023/07/08 03:18:45;;;;;;;10.05;7.72;;;;;;;12.66;100.00;101729.06;4928969;29;20040;-73
2023/07/08 03:21:16;;;;;;;14.10;8.10;;;;;;;12.70;100.00;101731.47;4941912;28;20027;-73
2023/07/08 03:23:41;;;;;;;9.40;7.93;;;;;;;12.69;100.00;101733.31;4906265;29;20035;-73
2023/07/08 03:26:07;;;;;;;13.27;9.25;;;;;;;12.68;100.00;101726.25;4944063;28;20078;-73
2023/07/08 03:28:33;;;;;;;12.82;8.73;;;;;;;12.64;100.00;101720.38;4927238;29;20489;-72
2023/07/08 03:30:58;;;;;;;13.07;8.45;;;;;;;12.67;100.00;101725.41;4937021;28;20039;-73
2023/07/08 03:33:23;;;;;;;11.53;8.20;;;;;;;12.73;100.00;101734.66;4929468;29;20067;-73
2023/07/08 03:35:50;;;;;;;12.55;9.23;;;;;;;12.77;100.00;101727.19;4923575;29;20036;-73
2023/07/08 03:38:15;;;;;;;10.70;8.68;;;;;;;12.79;100.00;101723.34;4927096;28;20472;-73
2023/07/08 03:40:41;;;;;;;14.18;9.65;;;;;;;12.81;100.00;101724.03;4923179;29;20273;-72
2023/07/08 03:43:07;;;;;;;10.80;8.48;;;;;;;12.83;100.00;101726.53;4946596;28;20030;-73
2023/07/08 03:45:34;;;;;;;9.70;8.13;;;;;;;12.89;100.00;101739.34;4925426;29;20035;-73
2023/07/08 03:47:59;;;;;;;11.07;8.23;;;;;;;12.93;100.00;101745.25;4942711;28;20135;-73
2023/07/08 03:50:26;;;;;;;9.53;7.73;;;;;;;12.94;100.00;101745.09;4927546;29;20404;-73
2023/07/08 03:52:54;;;;;;;12.50;9.20;;;;;;;13.01;100.00;101737.28;4919371;29;20393;-73
2023/07/08 03:55:22;;;;;;;14.82;8.63;;;;;;;13.04;100.00;101743.19;4927769;29;20031;-73
2023/07/08 03:57:47;;;;;;;12.30;9.20;;;;;;;13.15;100.00;101743.94;4923089;28;20032;-73
2023/07/08 04:00:15;;;;;;;10.77;7.05;;;;;;;13.25;100.00;101753.56;4928591;29;20044;-73
2023/07/08 04:02:41;;;;;;;11.50;8.10;;;;;;;13.39;100.00;101751.34;4920899;29;20031;-73
2023/07/08 04:05:13;;;;;;;10.45;7.53;;;;;;;13.49;100.00;101758.31;4941164;28;20042;-73
2023/07/08 04:07:39;;;;;;;12.02;8.57;;;;;;;13.59;100.00;101749.31;4939138;28;20059;-73
2023/07/08 04:10:05;;;;;;;17.23;9.23;;;;;;;13.72;100.00;101749.75;4930172;29;20039;-73
2023/07/08 04:12:30;;;;;;;9.30;7.80;;;;;;;13.79;100.00;101753.47;4914272;29;20126;-73
2023/07/08 04:14:55;;;;;;;14.50;8.03;;;;;;;13.90;100.00;101749.66;4934177;29;20036;-73
2023/07/08 04:17:23;;;;;;;8.47;7.60;;;;;;;14.01;100.00;101743.19;4936443;29;20041;-73
2023/07/08 04:19:48;;;;;;;11.57;8.05;;;;;;;14.12;100.00;101748.28;4930817;29;20396;-73
2023/07/08 04:22:14;;;;;;;10.73;8.00;;;;;;;14.23;100.00;101736.38;4931886;28;20035;-73
2023/07/08 04:24:39;;;;;;;10.53;8.33;;;;;;;14.38;100.00;101739.31;4933462;29;20035;-73
2023/07/08 04:27:05;;;;;;;10.90;8.33;;;;;;;14.51;100.00;101743.16;4931811;29;20122;-73
2023/07/08 04:29:30;;;;;;;16.13;8.30;;;;;;;14.62;100.00;101736.69;4930250;29;20032;-73
2023/07/08 04:31:55;;;;;;;10.13;7.50;;;;;;;14.75;100.00;101726.31;4947362;28;20039;-73
2023/07/08 04:34:21;;;;;;;12.27;8.10;;;;;;;14.87;100.00;101718.75;4927758;29;20024;-73
2023/07/08 04:36:46;;;;;;;8.87;7.33;;;;;;;14.98;100.00;101714.88;4926629;29;20665;-73
2023/07/08 04:39:13;;;;;;;13.50;6.70;;;;;;;15.10;100.00;101716.25;4929039;29;20650;-73
2023/07/08 04:41:40;;;;;;;;;;;;;;;15.24;100.00;101719.25;4942263;28;20262;-73
2023/07/08 04:44:10;;;;;;;8.80;6.43;;;;;;;15.36;100.00;101720.59;4943007;28;19928;-73
2023/07/08 04:46:45;;;;;;;9.23;6.22;;;;;;;15.48;100.00;101718.38;4931454;29;20040;-73
2023/07/08 04:49:11;;;;;;;11.57;7.80;;;;;;;15.58;100.00;101713.66;4929280;29;20472;-73
2023/07/08 04:51:40;;;;;;;10.68;7.22;;;;;;;15.69;100.00;101705.22;4944729;28;20038;-73
2023/07/08 04:54:06;;;;;;;8.77;6.70;;;;;;;15.83;100.00;101695.59;4932820;29;20035;-73
2023/07/08 04:56:42;;;;;;;;;;;;;;;15.97;100.00;101692.19;4931392;29;20036;-73
2023/07/08 04:59:08;;;;;;;;;;;;;;;16.12;100.00;101684.19;4932176;29;19918;-73
2023/07/08 05:01:34;;;;;;;13.63;7.18;;;;;;;16.22;100.00;101678.56;4927622;29;20102;-73
2023/07/08 05:04:00;;;;;;;9.10;6.40;;;;;;;16.34;100.00;101658.31;4932269;28;20593;-73
2023/07/08 05:06:26;;;;;;;13.93;7.00;;;;;;;16.46;100.00;101631.78;4934815;29;20480;-73
2023/07/08 05:08:51;;;;;;;15.70;6.60;;;;;;;16.65;100.00;101620.50;4929495;29;20032;-73
2023/07/08 05:11:17;;;;;;;8.13;6.18;;;;;;;16.85;100.00;101615.47;4929283;28;20106;-73
2023/07/08 05:13:42;;;;;;;7.43;5.70;;;;;;;17.04;100.00;101599.78;4930993;29;20380;-73
2023/07/08 05:16:07;;;;;;;11.10;5.73;;;;;;;17.20;100.00;101602.31;4940255;28;20035;-72
2023/07/08 05:18:33;;;;;;;6.50;4.77;;;;;;;17.45;100.00;101553.44;4927450;29;20039;-72
2023/07/08 05:20:58;;;;;;;9.83;5.17;;;;;;;17.70;100.00;101537.78;4935553;29;20159;-72
2023/07/08 05:23:24;;;;;;;8.63;6.07;;;;;;;17.89;100.00;101522.84;4932560;28;20035;-73
2023/07/08 05:25:49;;;;;;;10.63;6.85;;;;;;;18.12;100.00;101520.78;4927465;29;20048;-73
2023/07/08 05:28:15;;;;;;;7.80;5.03;;;;;;;18.46;100.00;101489.44;4944456;28;20038;-73
2023/07/08 05:30:41;;;;;;;7.25;4.78;;;;;;;18.73;100.00;101387.69;4937886;28;20177;-73
2023/07/08 05:33:07;;;;;;;4.78;3.90;;;;;;;19.03;100.00;101346.00;4939247;29;20030;-73
2023/07/08 05:35:32;;;;;;;7.78;4.53;;;;;;;19.32;100.00;101269.84;4964835;28;20050;-73
2023/07/08 05:37:58;;;;;;;8.27;4.73;;;;;;;19.89;100.00;101180.00;4949593;28;20059;-73
2023/07/08 05:40:23;;;;;;;6.38;3.78;;;;;;;20.66;100.00;101124.78;4938654;28;20787;-73
2023/07/08 05:42:50;;;;;;;10.57;3.73;;;;;;;21.53;100.00;100996.34;4941135;28;20036;-73
2023/07/08 05:45:15;;;;;;;10.77;3.78;;;;;;;22.07;100.00;100841.44;4947256;28;20035;-74
2023/07/08 05:47:41;;;;;;;6.73;4.50;;;;;;;22.50;100.00;100658.84;4944378;28;20027;-73
2023/07/08 05:50:07;;;;;;;11.57;3.70;;;;;;;23.23;100.00;100655.47;4931981;29;20093;-73
2023/07/08 05:52:32;;;;;;;7.22;4.07;;;;;;;23.11;100.00;100560.25;4939961;29;20055;-74
2023/07/08 05:54:57;;;;;;;9.70;4.45;;;;;;;23.53;99.75;100510.66;4936828;29;20481;-74
2023/07/08 05:57:23;;;;;;;7.13;4.37;;;;;;;24.55;94.74;100540.94;4935324;28;20031;-73
2023/07/08 05:59:50;;;;;;;7.32;3.83;;;;;;;23.84;89.89;100334.72;4937152;29;20015;-73
2023/07/08 06:02:16;;;;;;;4.60;3.40;;;;;;;24.40;85.84;100266.06;4954007;28;20480;-74
2023/07/08 06:04:42;;;;;;;;;;;;;;;24.85;85.61;100508.41;4940056;28;20055;-74
2023/07/08 06:07:07;;;;;;;8.43;3.55;;;;;;;24.87;81.81;100299.84;4934125;29;20372;-73
2023/07/08 06:09:33;;;;;;;5.47;3.42;;;;;;;24.71;82.63;100473.66;4937147;29;20411;-73
2023/07/08 06:11:58;;;;;;;5.93;3.65;;;;;;;24.06;80.08;100292.88;4934079;28;20040;-73
2023/07/08 06:14:24;;;;;;;8.93;2.97;;;;;;;25.32;77.84;100476.72;4931884;28;20027;-74
2023/07/08 06:16:49;;;;;;;5.50;3.30;;;;;;;24.93;75.37;100269.53;4944418;28;20626;-74
2023/07/08 06:19:16;;;;;;;6.63;3.03;;;;;;;25.02;74.50;100368.94;4935561;28;20277;-73
2023/07/08 06:21:42;;;;;;;5.03;3.13;;;;;;;25.63;73.55;100504.16;4928738;29;20287;-73
2023/07/08 06:24:07;;;;;;;4.07;2.88;;;;;;;26.03;70.92;100429.59;4933831;29;20118;-73
2023/07/08 06:26:33;;;;;;;7.03;2.92;;;;;;;26.21;68.61;100296.91;4935006;29;20166;-73
2023/07/08 06:28:58;;;;;;;8.10;2.97;;;;;;;25.33;68.93;100278.09;4928662;29;20028;-74
2023/07/08 06:31:23;;;;;;;5.93;3.33;;;;;;;25.32;66.28;100052.44;4936602;28;21034;-73
2023/07/08 06:33:49;;;;;;;5.10;3.20;;;;;;;25.04;66.74;100125.66;4929154;29;20438;-73
2023/07/08 06:36:15;;;;;;;;;;;;;;;25.89;66.17;100343.72;4934467;28;20314;-74
2023/07/08 06:38:40;;;;;;;4.77;3.10;;;;;;;25.46;63.82;100048.84;4934592;29;19954;-73
2023/07/08 06:41:06;;;;;;;7.27;3.07;;;;;;;25.17;64.42;100100.53;4912881;29;20282;-74
2023/07/08 06:43:31;;;;;;;6.40;3.30;;;;;;;25.72;62.84;100154.53;4935257;28;20271;-73
2023/07/08 06:46:08;;;;;;;6.45;3.20;;;;;;;26.04;61.70;100113.97;4927695;29;20282;-74
2023/07/08 06:48:34;;;;;;;4.75;3.13;;;;;;;26.17;61.08;100155.50;4928327;29;20423;-73
2023/07/08 06:50:59;;;;;;;4.68;2.75;;;;;;;25.66;61.08;100066.25;4931877;29;20052;-73
2023/07/08 06:53:25;;;;;;;3.45;2.80;;;;;;;26.01;61.20;100163.78;4935751;29;20123;-74
2023/07/08 06:55:50;;;;;;;3.80;2.53;;;;;;;25.15;60.55;99949.75;4929101;29;20032;-73
2023/07/08 06:58:16;;;;;;;5.25;2.97;;;;;;;24.04;61.43;99761.47;4932222;28;20034;-73
2023/07/08 07:00:45;;;;;;;5.75;2.78;;;;;;;24.63;62.87;100175.59;4931499;29;20051;-72
2023/07/08 07:03:11;;;;;;;6.55;2.85;;;;;;;25.83;62.47;100467.84;4936119;29;20066;-73
2023/07/08 07:05:37;;;;;;;5.47;2.78;;;;;;;26.07;61.74;100449.84;4933655;29;20027;-73
2023/07/08 07:08:04;;;;;;;3.37;2.80;;;;;;;25.95;60.59;100255.13;4934720;29;20043;-73
2023/07/08 07:10:29;;;;;;;8.75;3.33;;;;;;;26.35;62.05;100527.03;4932482;28;20314;-74
2023/07/08 07:12:54;;;;;;;4.20;2.40;;;;;;;26.89;59.10;100329.28;4930935;29;20505;-74
2023/07/08 07:15:20;;;;;;;6.63;3.20;;;;;;;26.97;57.93;100236.66;4924233;29;20028;-74
2023/07/08 07:17:45;;;;;;;4.75;2.55;;;;;;;25.69;59.10;99964.56;4930615;29;20130;-74
2023/07/08 07:20:11;;;;;;;8.30;4.00;;;;;;;24.90;59.55;99876.13;4932640;28;20023;-73
2023/07/08 07:22:36;;;;;;;10.68;3.30;;;;;;;25.35;60.15;100122.91;4945412;28;20035;-73
2023/07/08 07:25:04;;;;;;;5.35;2.95;;;;;;;26.04;59.69;100278.09;4932062;29;20481;-73
2023/07/08 07:27:32;;;;;;;7.47;3.50;;;;;;;25.49;58.40;99905.38;4929155;28;20070;-73
2023/07/08 07:30:06;;;;;;;7.72;3.28;;;;;;;24.40;60.18;99856.88;4930242;29;20055;-73
2023/07/08 07:32:35;;;;;;;3.55;2.50;;;;;;;25.44;61.62;100406.25;4934191;29;20050;-73
2023/07/08 07:35:00;;;;;;;6.15;2.72;;;;;;;25.98;61.09;100467.09;4935770;29;20028;-73
2023/07/08 07:37:25;;;;;;;5.93;3.13;;;;;;;25.15;58.37;99780.44;4930297;28;20044;-73
2023/07/08 07:39:51;;;;;;;6.50;2.90;;;;;;;25.29;60.23;100163.09;4928565;29;20028;-73
2023/07/08 07:42:19;;;;;;;6.72;3.10;;;;;;;25.51;58.08;99929.69;4936068;28;20349;-73
2023/07/08 07:44:45;;;;;;;5.50;3.20;;;;;;;25.23;60.32;100165.00;4934823;29;20039;-73
2023/07/08 07:47:10;;;;;;;6.07;2.38;;;;;;;25.22;60.93;100258.97;4931494;28;20039;-73
2023/07/08 07:49:39;;;;;;;5.68;3.05;;;;;;;25.58;58.64;100095.00;4928333;29;20111;-73
2023/07/08 07:52:05;;;;;;;4.25;2.88;;;;;;;24.99;58.66;99864.34;4933757;29;20027;-73
2023/07/08 07:54:31;;;;;;;6.82;2.83;;;;;;;25.69;58.82;100155.91;4929590;28;20563;-73
2023/07/08 07:56:56;;;;;;;7.05;2.75;;;;;;;25.58;58.20;100054.00;4931083;29;20040;-73
2023/07/08 07:59:22;;;;;;;5.93;3.13;;;;;;;25.64;55.26;99711.25;4930724;28;20658;-73
2023/07/08 08:01:47;;;;;;;3.53;2.42;;;;;;;26.44;55.70;100094.88;4927470;29;20288;-73
2023/07/08 08:04:13;;;;;;;4.70;3.07;;;;;;;26.90;55.50;100147.44;4931382;28;20023;-73
2023/07/08 08:06:38;;;;;;;4.03;2.95;;;;;;;25.59;56.16;99842.47;4927629;29;21125;-73
2023/07/08 08:09:05;;;;;;;7.22;2.83;;;;;;;24.76;57.32;99712.13;4930968;29;20027;-73
2023/07/08 08:11:30;;;;;;;4.57;2.60;;;;;;;24.34;57.94;99650.66;4928554;28;20040;-73
2023/07/08 08:13:56;;;;;;;6.43;3.05;;;;;;;25.10;57.61;99966.16;4927561;29;20028;-73
2023/07/08 08:16:22;;;;;;;5.57;3.30;;;;;;;26.08;56.72;100169.78;4937429;29;20043;-73
2023/07/08 08:18:48;;;;;;;13.55;3.40;;;;;;;25.43;56.44;99876.47;4944976;28;20032;-73
2023/07/08 08:21:13;;;;;;;6.07;3.10;;;;;;;25.31;56.62;99854.09;4937268;28;20069;-73
2023/07/08 08:23:39;;;;;;;5.30;3.17;;;;;;;25.06;56.85;99831.28;4931223;28;20032;-73
2023/07/08 08:26:04;;;;;;;3.60;2.60;;;;;;;25.91;56.90;100158.34;4951030;28;20378;-73
2023/07/08 08:28:29;;;;;;;5.73;2.77;;;;;;;25.60;54.06;99570.00;4931936;28;20036;-73
2023/07/08 08:30:55;;;;;;;6.53;3.10;;;;;;;24.75;56.03;99632.19;4945540;28;20288;-73
2023/07/08 08:33:20;;;;;;;5.40;3.23;;;;;;;25.01;56.49;99861.34;4932269;29;20266;-73
2023/07/08 08:35:46;;;;;;;4.90;2.53;;;;;;;25.27;55.99;99898.38;4933254;29;20070;-74
2023/07/08 08:38:12;;;;;;;5.05;2.92;;;;;;;25.03;56.61;99853.69;4939857;28;20020;-73
2023/07/08 08:40:40;;;;;;;6.20;2.80;;;;;;;25.07;56.22;99816.50;4938110;28;20038;-73
2023/07/08 08:43:32;;;;;;;6.28;2.65;;;;;;;25.81;57.41;100234.91;4953224;28;20022;-74
2023/07/08 08:46:00;;;;;;;8.30;2.88;;;;;;;26.38;54.35;99965.47;4925581;29;20052;-73
2023/07/08 08:48:29;;;;;;;3.95;3.10;;;;;;;26.11;53.30;99785.47;4929740;29;20454;-73
2023/07/08 08:50:59;;;;;;;4.30;2.78;;;;;;;26.09;54.36;99946.31;4938070;29;20480;-74
2023/07/08 08:53:26;;;;;;;5.55;2.67;;;;;;;26.84;52.80;99975.22;4940518;29;20488;-74
2023/07/08 08:55:59;;;;;;;6.60;2.58;;;;;;;25.51;52.58;99435.13;4938457;28;20027;-74
2023/07/08 08:58:50;;;;;;;4.75;2.88;;;;;;;25.91;53.05;99666.16;4933955;29;20078;-74
2023/07/08 09:01:17;;;;;;;5.78;2.83;;;;;;;26.57;53.43;100031.31;4936609;29;20440;-74
2023/07/08 09:03:48;;;;;;;3.78;2.88;;;;;;;26.75;53.03;99985.97;4940748;28;20082;-74
2023/07/08 09:06:26;;;;;;;5.07;3.08;;;;;;;26.95;52.57;100007.69;4948200;29;20067;-74
2023/07/08 09:08:53;;;;;;;6.50;2.13;;;;;;;26.68;51.74;99739.13;4941267;28;20042;-73
2023/07/08 09:11:27;;;;;;;6.53;2.60;;;;;;;25.99;52.32;99556.16;4944147;29;20035;-74
2023/07/08 09:13:54;;;;;;;4.50;2.75;;;;;;;26.93;50.92;99755.22;4940338;28;20049;-74
2023/07/08 09:16:43;;;;;;;4.90;2.70;;;;;;;27.21;51.70;99929.94;4931089;28;20047;-74
2023/07/08 09:19:32;;;;;;;5.07;2.42;;;;;;;26.76;49.23;99338.75;4931381;29;20072;-74
2023/07/08 09:22:14;;;;;;;7.55;2.97;;;;;;;26.24;50.60;99406.44;4947455;28;20063;-73
2023/07/08 09:24:49;;;;;;;10.05;2.92;;;;;;;27.01;51.62;99947.38;4927928;29;20045;-75
2023/07/08 09:27:15;;;;;;;3.88;2.60;;;;;;;26.66;50.07;99508.66;4942508;28;20105;-73
2023/07/08 09:29:40;;;;;;;4.03;2.42;;;;;;;26.91;49.96;99628.72;4928603;29;20044;-73
2023/07/08 09:32:18;;;;;;;3.88;2.38;;;;;;;27.47;50.47;99931.22;4924633;29;20047;-73
2023/07/08 09:34:51;;;;;;;4.95;2.47;;;;;;;27.91;48.32;99716.13;4924475;29;20046;-74
2023/07/08 09:37:28;;;;;;;8.68;2.67;;;;;;;28.48;49.04;99968.41;4926669;28;20032;-74
2023/07/08 09:39:55;;;;;;;4.65;2.40;;;;;;;27.79;49.20;99711.09;4922128;29;20036;-74
2023/07/08 09:42:24;;;;;;;4.22;2.70;;;;;;;27.61;48.76;99650.88;4931430;29;20046;-74
2023/07/08 09:44:56;;;;;;;5.97;3.38;;;;;;;28.17;48.81;99869.28;4945019;28;20036;-74
2023/07/08 09:47:30;;;;;;;6.55;2.95;;;;;;;27.89;47.81;99518.16;4930361;28;20046;-74
2023/07/08 09:49:57;;;;;;;4.13;2.75;;;;;;;27.87;47.92;99561.53;4929987;29;20168;-74
2023/07/08 09:52:23;;;;;;;6.15;2.90;;;;;;;27.05;47.03;99130.31;4924926;29;20034;-74
2023/07/08 09:54:49;;;;;;;2.85;2.30;;;;;;;27.28;48.83;99544.84;4923468;29;20036;-74
2023/07/08 09:57:31;;;;;;;4.45;3.10;;;;;;;27.74;47.22;99485.53;4928174;29;20024;-74
2023/07/08 10:00:07;;;;;;;4.70;2.70;;;;;;;27.06;48.26;99322.81;4928782;29;20086;-73
2023/07/08 10:02:44;;;;;;;6.07;2.60;;;;;;;28.23;47.25;99695.19;4927138;29;20217;-74
2023/07/08 10:05:18;;;;;;;2.85;2.28;;;;;;;28.95;45.54;99664.25;4921247;29;20124;-74
2023/07/08 10:07:44;;;;;;;5.10;3.15;;;;;;;29.88;45.18;99841.59;4925790;29;20049;-74
2023/07/08 10:10:16;;;;;;;4.22;2.50;;;;;;;29.67;43.87;99582.75;4930443;28;20035;-73
2023/07/08 10:12:49;;;;;;;6.20;2.65;;;;;;;28.78;44.87;99343.63;4924729;29;20485;-74
2023/07/08 10:15:33;;;;;;;3.53;2.88;;;;;;;28.87;45.78;99551.56;4925803;29;20123;-74
2023/07/08 10:17:59;;;;;;;7.28;2.53;;;;;;;28.49;45.32;99308.44;4928687;29;20087;-74
2023/07/08 10:20:34;;;;;;;4.60;2.90;;;;;;;28.44;45.66;99366.19;4928846;28;20043;-74
2023/07/08 10:23:27;;;;;;;5.38;2.50;;;;;;;29.07;45.39;99520.00;4931602;29;20035;-74
2023/07/08 10:26:19;;;;;;;4.22;2.42;;;;;;;29.07;45.66;99613.44;4941794;28;20047;-74
2023/07/08 10:28:53;;;;;;;5.85;2.33;;;;;;;29.83;45.06;99866.47;4924741;29;20471;-74
2023/07/08 10:31:32;;;;;;;4.25;2.78;;;;;;;29.85;44.47;99741.25;4926147;28;20054;-74
2023/07/08 10:34:11;;;;;;;6.35;3.03;;;;;;;29.41;42.75;99182.09;4926149;29;20040;-74
2023/07/08 10:36:48;;;;;;;3.22;2.55;;;;;;;29.41;43.74;99340.72;4943241;28;20043;-74
2023/07/08 10:39:44;;;;;;;8.70;2.78;;;;;;;30.37;42.56;99561.72;4939943;28;20038;-74
2023/07/08 10:42:36;;;;;;;5.30;2.67;;;;;;;28.97;43.33;99162.03;4927486;29;20039;-73
2023/07/08 10:45:13;;;;;;;3.90;2.65;;;;;;;30.28;42.42;99472.81;4925427;29;20051;-74
2023/07/08 10:47:44;;;;;;;2.80;2.28;;;;;;;29.66;42.49;99251.91;4928160;29;20547;-74
2023/07/08 10:50:57;;;;;;;8.65;2.45;;;;;;;29.14;42.48;99050.56;4922302;29;20028;-74
2023/07/08 10:53:44;;;;;;;6.15;3.53;;;;;;;29.58;41.97;99085.00;4947537;28;20048;-73
2023/07/08 10:56:44;;;;;;;2.72;2.22;;;;;;;29.11;42.61;99092.44;4926371;29;20063;-73
2023/07/08 10:59:31;;;;;;;2.72;2.50;;;;;;;29.15;43.57;99351.66;4935997;28;20102;-74
2023/07/08 11:02:18;;;;;;;5.35;2.60;;;;;;;28.68;44.06;99216.78;4922444;29;20168;-73
2023/07/08 11:04:46;;;;;;;3.42;2.40;;;;;;;29.15;44.41;99450.56;4927341;29;20040;-73
2023/07/08 11:07:34;;;;;;;3.95;1.90;;;;;;;29.75;41.99;99289.63;4923724;29;20393;-73
2023/07/08 11:10:05;;;;;;;5.35;2.60;;;;;;;28.85;43.19;99049.28;4929986;29;20040;-73
2023/07/08 11:12:41;;;;;;;3.97;3.08;;;;;;;30.12;41.90;99384.41;4926291;28;20051;-73
2023/07/08 11:15:30;;;;;;;3.42;2.50;;;;;;;29.94;40.42;99014.16;4926894;29;20071;-74
2023/07/08 11:18:14;;;;;;;3.53;2.25;;;;;;;29.84;41.44;99177.63;4930101;29;20048;-73
2023/07/08 11:20:52;;;;;;;4.40;2.70;;;;;;;29.85;41.72;99226.81;4944874;28;20054;-73
2023/07/08 11:23:33;;;;;;;6.65;2.70;;;;;;;30.15;41.46;99327.88;4923846;29;20473;-74
2023/07/08 11:26:22;;;;;;;4.75;2.75;;;;;;;29.35;42.16;99040.47;4928609;29;20544;-74
2023/07/08 11:28:51;;;;;;;4.32;2.67;;;;;;;28.67;43.31;99116.34;4926597;29;20477;-74
2023/07/08 11:31:17;;;;;;;3.80;2.92;;;;;;;29.39;42.50;99151.38;4926964;29;20102;-74